Afon Alaw — 2FCZ7 — position and weather

sailwx.info

Track history (hours):
 
Tides and Currents Weather Stations Pressure Air Temp Water Temp Dewpoint Dewpoint Depression Visibility Wind Speed Wind Dir Waves Ship Positions

Afon Alaw

Last reported at 2017-Feb-21 04:28 UTC. Time now 2017-Feb-26 00:57 UTC.
Position N 49°50' W 001°21'.

Length 25 m; draft 2.6 m.

Type: Tug. MMSI: 235090202.

Date/timePositionNaut miles runAvg speedWind from/ knotsBaromVisibWave heightAir tempDewpointWater temp
2017-Feb-21 04:28N 49°50' W 001°21'6 6.4
2017-Feb-21 03:34N 49°51' W 001°30'6 6.5
2017-Feb-21 02:33N 49°53' W 001°40'6 6.2
2017-Feb-21 01:33N 49°54' W 001°49'121 3.0
2017-Feb-19 09:23N 50°05' W 004°57'48 1.1
2017-Feb-17 14:26N 50°09' W 003°42'9 9.9
2017-Feb-17 13:33N 50°10' W 003°29'9 9.2
2017-Feb-17 12:33N 50°12' W 003°14'9 8.8
2017-Feb-17 11:30N 50°14' W 003°00'11710.2
2017-Feb-17 00:03N 50°33' E 000°01'4 7.9
2017-Feb-16 23:33N 50°34' E 000°07'57 9.4
2017-Feb-16 17:31N 51°03' E 001°24'7 7.5
2017-Feb-16 16:32N 51°08' E 001°33'6 6.5
2017-Feb-16 15:33N 51°12' E 001°40'7 7.5
2017-Feb-16 14:33N 51°20' E 001°43'9 9.4
2017-Feb-16 13:33N 51°29' E 001°44'1111.1
2017-Feb-16 12:33N 51°40' E 001°44'1111.5
2017-Feb-16 11:33N 51°52' E 001°44'1111.2
2017-Feb-16 10:33N 52°03' E 001°47'1110.6
2017-Feb-16 09:33N 52°13' E 001°50'44 7.3
2017-Feb-16 03:32N 52°57' E 001°45'8 8.2
2017-Feb-16 02:33N 53°01' E 001°33'9 9.4
2017-Feb-16 01:33N 53°03' E 001°18'59 9.2
2017-Feb-15 19:12N 53°35' W 000°04'0 0.1
2017-Feb-15 17:08N 53°35' W 000°04'0 0.1
2017-Feb-15 16:11N 53°35' W 000°04'0 0.0
2017-Feb-15 15:32N 53°35' W 000°04'0 0.1
2017-Feb-15 12:24N 53°35' W 000°04'0 0.0
2017-Feb-14 15:33N 53°35' W 000°04'0 0.2
2017-Feb-14 14:30N 53°35' W 000°04'0 0.0
2017-Feb-14 13:33N 53°35' W 000°04'0 0.0
2017-Feb-14 12:33N 53°35' W 000°04'0 0.2
2017-Feb-14 11:31N 53°35' W 000°04'0 0.0
2017-Feb-14 10:29N 53°35' W 000°04'0 0.0
2017-Feb-14 09:33N 53°35' W 000°04'0 0.0
2017-Feb-14 08:33N 53°35' W 000°04'0 0.0
2017-Feb-14 07:31N 53°35' W 000°04'0 0.0
2017-Feb-14 06:32N 53°35' W 000°04'0 0.0
2017-Feb-14 05:20N 53°35' W 000°04'0 0.0
2017-Feb-12 07:17N 53°35' W 000°04'0 0.0
2017-Feb-12 06:31N 53°35' W 000°04'0 0.0
2017-Feb-11 06:33N 53°35' W 000°04'0 0.0
2017-Feb-11 05:33N 53°35' W 000°04'  
Track history (hours):
 
Tides and Currents Weather Stations Pressure Air Temp Water Temp Dewpoint Dewpoint Depression Visibility Wind Speed Wind Dir Waves Ship Positions

Afon Alaw

Last reported at 2017-Feb-21 04:28 UTC. Time now 2017-Feb-26 00:57 UTC.
Position N 49°50' W 001°21'.

Length 25 m; draft 2.6 m.

Type: Tug. MMSI: 235090202.

Date/timePositionNaut miles runAvg speedWind from/ knotsBaromVisibWave heightAir tempDewpointWater temp
2017-Feb-21 04:28N 49°50' W 001°21'6 6.4
2017-Feb-21 03:34N 49°51' W 001°30'6 6.5
2017-Feb-21 02:33N 49°53' W 001°40'6 6.2
2017-Feb-21 01:33N 49°54' W 001°49'121 3.0
2017-Feb-19 09:23N 50°05' W 004°57'48 1.1
2017-Feb-17 14:26N 50°09' W 003°42'9 9.9
2017-Feb-17 13:33N 50°10' W 003°29'9 9.2
2017-Feb-17 12:33N 50°12' W 003°14'9 8.8
2017-Feb-17 11:30N 50°14' W 003°00'11710.2
2017-Feb-17 00:03N 50°33' E 000°01'4 7.9
2017-Feb-16 23:33N 50°34' E 000°07'57 9.4
2017-Feb-16 17:31N 51°03' E 001°24'7 7.5
2017-Feb-16 16:32N 51°08' E 001°33'6 6.5
2017-Feb-16 15:33N 51°12' E 001°40'7 7.5
2017-Feb-16 14:33N 51°20' E 001°43'9 9.4
2017-Feb-16 13:33N 51°29' E 001°44'1111.1
2017-Feb-16 12:33N 51°40' E 001°44'1111.5
2017-Feb-16 11:33N 51°52' E 001°44'1111.2
2017-Feb-16 10:33N 52°03' E 001°47'1110.6
2017-Feb-16 09:33N 52°13' E 001°50'44 7.3
2017-Feb-16 03:32N 52°57' E 001°45'8 8.2
2017-Feb-16 02:33N 53°01' E 001°33'9 9.4
2017-Feb-16 01:33N 53°03' E 001°18'59 9.2
2017-Feb-15 19:12N 53°35' W 000°04'0 0.1
2017-Feb-15 17:08N 53°35' W 000°04'0 0.1
2017-Feb-15 16:11N 53°35' W 000°04'0 0.0
2017-Feb-15 15:32N 53°35' W 000°04'0 0.1
2017-Feb-15 12:24N 53°35' W 000°04'0 0.0
2017-Feb-14 15:33N 53°35' W 000°04'0 0.2
2017-Feb-14 14:30N 53°35' W 000°04'0 0.0
2017-Feb-14 13:33N 53°35' W 000°04'0 0.0
2017-Feb-14 12:33N 53°35' W 000°04'0 0.2
2017-Feb-14 11:31N 53°35' W 000°04'0 0.0
2017-Feb-14 10:29N 53°35' W 000°04'0 0.0
2017-Feb-14 09:33N 53°35' W 000°04'0 0.0
2017-Feb-14 08:33N 53°35' W 000°04'0 0.0
2017-Feb-14 07:31N 53°35' W 000°04'0 0.0
2017-Feb-14 06:32N 53°35' W 000°04'0 0.0
2017-Feb-14 05:20N 53°35' W 000°04'0 0.0
2017-Feb-12 07:17N 53°35' W 000°04'0 0.0
2017-Feb-12 06:31N 53°35' W 000°04'0 0.0
2017-Feb-11 06:33N 53°35' W 000°04'0 0.0
2017-Feb-11 05:33N 53°35' W 000°04'  

Dump ship's entire track history